sensor_id;sensor_type;location;lat;lon;timestamp;temperature;humidity
54202;DHT22;40108;53.152;5.844;2023-03-01T00:02:00;0.80;91.70
54202;DHT22;40108;53.152;5.844;2023-03-01T00:04:26;0.70;91.40
54202;DHT22;40108;53.152;5.844;2023-03-01T00:06:53;0.70;91.60
54202;DHT22;40108;53.152;5.844;2023-03-01T00:09:19;0.60;91.40
54202;DHT22;40108;53.152;5.844;2023-03-01T00:11:45;0.50;91.40
54202;DHT22;40108;53.152;5.844;2023-03-01T00:14:11;0.20;91.10
54202;DHT22;40108;53.152;5.844;2023-03-01T00:16:39;0.00;90.90
54202;DHT22;40108;53.152;5.844;2023-03-01T00:19:18;-3276.60;90.90
54202;DHT22;40108;53.152;5.844;2023-03-01T00:21:45;-3276.40;90.90
54202;DHT22;40108;53.152;5.844;2023-03-01T00:24:11;-3276.20;91.30
54202;DHT22;40108;53.152;5.844;2023-03-01T00:26:37;-3276.10;91.30
54202;DHT22;40108;53.152;5.844;2023-03-01T00:29:03;-3276.00;91.60
54202;DHT22;40108;53.152;5.844;2023-03-01T00:31:31;-3275.90;91.70
54202;DHT22;40108;53.152;5.844;2023-03-01T00:33:59;-3275.80;91.90
54202;DHT22;40108;53.152;5.844;2023-03-01T00:36:31;-3275.80;91.90
54202;DHT22;40108;53.152;5.844;2023-03-01T00:38:57;-3275.70;91.80
54202;DHT22;40108;53.152;5.844;2023-03-01T00:41:23;-3275.60;92.00
54202;DHT22;40108;53.152;5.844;2023-03-01T00:43:52;-3275.60;92.20
54202;DHT22;40108;53.152;5.844;2023-03-01T00:46:20;-3275.60;92.00
54202;DHT22;40108;53.152;5.844;2023-03-01T00:48:47;-3275.60;92.10
54202;DHT22;40108;53.152;5.844;2023-03-01T00:51:22;-3275.50;92.30
54202;DHT22;40108;53.152;5.844;2023-03-01T00:53:51;-3275.50;92.20
54202;DHT22;40108;53.152;5.844;2023-03-01T00:56:18;-3275.50;92.40
54202;DHT22;40108;53.152;5.844;2023-03-01T00:58:44;-3275.40;92.50
54202;DHT22;40108;53.152;5.844;2023-03-01T01:01:15;-3275.50;92.70
54202;DHT22;40108;53.152;5.844;2023-03-01T01:03:53;-3275.60;93.00
54202;DHT22;40108;53.152;5.844;2023-03-01T01:06:21;-3275.60;93.20
54202;DHT22;40108;53.152;5.844;2023-03-01T01:08:48;-3275.70;93.20
54202;DHT22;40108;53.152;5.844;2023-03-01T01:11:14;-3275.70;93.30
54202;DHT22;40108;53.152;5.844;2023-03-01T01:13:41;-3275.80;93.40
54202;DHT22;40108;53.152;5.844;2023-03-01T01:16:08;-3275.90;93.50
54202;DHT22;40108;53.152;5.844;2023-03-01T01:18:33;-3275.90;93.60
54202;DHT22;40108;53.152;5.844;2023-03-01T01:21:05;-3276.00;93.60
54202;DHT22;40108;53.152;5.844;2023-03-01T01:23:31;-3276.00;93.60
54202;DHT22;40108;53.152;5.844;2023-03-01T01:25:57;-3276.00;93.60
54202;DHT22;40108;53.152;5.844;2023-03-01T01:28:22;-3276.00;93.60
54202;DHT22;40108;53.152;5.844;2023-03-01T01:30:48;-3276.00;93.70
54202;DHT22;40108;53.152;5.844;2023-03-01T01:33:14;-3276.10;93.60
54202;DHT22;40108;53.152;5.844;2023-03-01T01:35:39;-3276.10;93.60
54202;DHT22;40108;53.152;5.844;2023-03-01T01:38:05;-3276.00;93.60
54202;DHT22;40108;53.152;5.844;2023-03-01T01:40:31;-3276.00;93.50
54202;DHT22;40108;53.152;5.844;2023-03-01T01:42:56;-3276.00;93.40
54202;DHT22;40108;53.152;5.844;2023-03-01T01:45:34;-3275.90;93.40
54202;DHT22;40108;53.152;5.844;2023-03-01T01:48:04;-3275.90;93.40
54202;DHT22;40108;53.152;5.844;2023-03-01T01:50:32;-3275.90;93.30
54202;DHT22;40108;53.152;5.844;2023-03-01T01:53:23;-3275.80;93.20
54202;DHT22;40108;53.152;5.844;2023-03-01T01:55:54;-3275.70;93.20
54202;DHT22;40108;53.152;5.844;2023-03-01T01:58:26;-3275.70;93.20
54202;DHT22;40108;53.152;5.844;2023-03-01T02:00:54;-3275.60;93.20
54202;DHT22;40108;53.152;5.844;2023-03-01T02:03:27;-3275.60;93.20
54202;DHT22;40108;53.152;5.844;2023-03-01T02:06:04;-3275.60;93.20
54202;DHT22;40108;53.152;5.844;2023-03-01T02:08:34;-3275.60;93.10
54202;DHT22;40108;53.152;5.844;2023-03-01T02:11:01;-3275.70;93.30
54202;DHT22;40108;53.152;5.844;2023-03-01T02:13:30;-3275.70;93.40
54202;DHT22;40108;53.152;5.844;2023-03-01T02:15:56;-3275.80;93.50
54202;DHT22;40108;53.152;5.844;2023-03-01T02:18:23;-3275.80;93.40
54202;DHT22;40108;53.152;5.844;2023-03-01T02:23:30;-3275.70;93.10
54202;DHT22;40108;53.152;5.844;2023-03-01T02:26:48;-3275.80;93.20
54202;DHT22;40108;53.152;5.844;2023-03-01T02:28:47;-3275.80;93.30
54202;DHT22;40108;53.152;5.844;2023-03-01T02:31:19;-3275.80;93.30
54202;DHT22;40108;53.152;5.844;2023-03-01T02:34:05;-3275.80;93.40
54202;DHT22;40108;53.152;5.844;2023-03-01T02:36:37;-3275.80;93.20
54202;DHT22;40108;53.152;5.844;2023-03-01T02:39:06;-3275.80;93.20
54202;DHT22;40108;53.152;5.844;2023-03-01T02:41:36;-3275.80;93.30
54202;DHT22;40108;53.152;5.844;2023-03-01T02:44:04;-3275.80;93.10
54202;DHT22;40108;53.152;5.844;2023-03-01T02:46:30;-3275.80;93.10
54202;DHT22;40108;53.152;5.844;2023-03-01T02:48:57;-3275.70;93.10
54202;DHT22;40108;53.152;5.844;2023-03-01T02:56:20;-3275.70;93.30
54202;DHT22;40108;53.152;5.844;2023-03-01T02:58:46;-3275.70;93.20
54202;DHT22;40108;53.152;5.844;2023-03-01T03:01:16;-3275.70;93.30
54202;DHT22;40108;53.152;5.844;2023-03-01T03:03:42;-3275.70;93.60
54202;DHT22;40108;53.152;5.844;2023-03-01T03:06:08;-3275.70;93.60
54202;DHT22;40108;53.152;5.844;2023-03-01T03:08:34;-3275.70;93.80
54202;DHT22;40108;53.152;5.844;2023-03-01T03:11:00;-3275.70;93.40
54202;DHT22;40108;53.152;5.844;2023-03-01T03:13:26;-3275.60;93.20
54202;DHT22;40108;53.152;5.844;2023-03-01T03:15:57;-3275.60;93.30
54202;DHT22;40108;53.152;5.844;2023-03-01T03:18:24;-3275.50;93.40
54202;DHT22;40108;53.152;5.844;2023-03-01T03:20:53;-3275.50;93.50
54202;DHT22;40108;53.152;5.844;2023-03-01T03:23:21;-3275.50;93.50
54202;DHT22;40108;53.152;5.844;2023-03-01T03:25:50;-3275.50;93.30
54202;DHT22;40108;53.152;5.844;2023-03-01T03:28:16;-3275.40;93.50
54202;DHT22;40108;53.152;5.844;2023-03-01T03:30:44;-3275.40;93.50
54202;DHT22;40108;53.152;5.844;2023-03-01T03:33:11;-3275.40;93.50
54202;DHT22;40108;53.152;5.844;2023-03-01T03:35:46;-3275.40;93.80
54202;DHT22;40108;53.152;5.844;2023-03-01T03:38:14;-3275.40;94.00
54202;DHT22;40108;53.152;5.844;2023-03-01T03:40:59;-3275.50;93.80
54202;DHT22;40108;53.152;5.844;2023-03-01T03:43:29;-3275.40;93.90
54202;DHT22;40108;53.152;5.844;2023-03-01T03:45:55;-3275.40;94.20
54202;DHT22;40108;53.152;5.844;2023-03-01T03:48:23;-3275.40;94.40
54202;DHT22;40108;53.152;5.844;2023-03-01T03:50:50;-3275.30;94.50
54202;DHT22;40108;53.152;5.844;2023-03-01T03:53:17;-3275.30;94.40
54202;DHT22;40108;53.152;5.844;2023-03-01T03:55:43;-3275.30;94.50
54202;DHT22;40108;53.152;5.844;2023-03-01T03:58:10;-3275.30;94.40
54202;DHT22;40108;53.152;5.844;2023-03-01T04:00:44;-3275.20;94.40
54202;DHT22;40108;53.152;5.844;2023-03-01T04:03:11;-3275.30;94.50
54202;DHT22;40108;53.152;5.844;2023-03-01T04:05:39;-3275.20;94.40
54202;DHT22;40108;53.152;5.844;2023-03-01T04:08:05;-3275.20;94.40
54202;DHT22;40108;53.152;5.844;2023-03-01T04:10:45;-3275.30;94.50
54202;DHT22;40108;53.152;5.844;2023-03-01T04:13:14;-3275.30;94.60
54202;DHT22;40108;53.152;5.844;2023-03-01T04:15:41;-3275.30;94.50
54202;DHT22;40108;53.152;5.844;2023-03-01T04:18:11;-3275.30;94.40
54202;DHT22;40108;53.152;5.844;2023-03-01T04:20:37;-3275.20;94.40
54202;DHT22;40108;53.152;5.844;2023-03-01T04:25:42;-3275.20;94.40
54202;DHT22;40108;53.152;5.844;2023-03-01T04:28:09;-3275.20;94.30
54202;DHT22;40108;53.152;5.844;2023-03-01T04:30:36;-3275.20;94.20
54202;DHT22;40108;53.152;5.844;2023-03-01T04:33:06;-3275.10;94.10
54202;DHT22;40108;53.152;5.844;2023-03-01T04:35:32;-3275.10;94.00
54202;DHT22;40108;53.152;5.844;2023-03-01T04:37:58;-3275.10;94.10
54202;DHT22;40108;53.152;5.844;2023-03-01T04:40:24;-3275.00;94.20
54202;DHT22;40108;53.152;5.844;2023-03-01T04:42:51;-3275.00;94.10
54202;DHT22;40108;53.152;5.844;2023-03-01T04:45:16;-3275.00;94.00
54202;DHT22;40108;53.152;5.844;2023-03-01T04:47:43;-3274.90;93.90
54202;DHT22;40108;53.152;5.844;2023-03-01T04:50:15;-3274.90;93.90
54202;DHT22;40108;53.152;5.844;2023-03-01T04:52:41;-3274.80;94.00
54202;DHT22;40108;53.152;5.844;2023-03-01T04:55:07;-3274.80;93.90
54202;DHT22;40108;53.152;5.844;2023-03-01T04:57:34;-3274.70;94.00
54202;DHT22;40108;53.152;5.844;2023-03-01T04:59:59;-3274.70;94.10
54202;DHT22;40108;53.152;5.844;2023-03-01T05:02:25;-3274.60;93.90
54202;DHT22;40108;53.152;5.844;2023-03-01T05:04:51;-3274.60;94.10
54202;DHT22;40108;53.152;5.844;2023-03-01T05:07:17;-3274.60;94.10
54202;DHT22;40108;53.152;5.844;2023-03-01T05:09:46;-3274.60;94.10
54202;DHT22;40108;53.152;5.844;2023-03-01T05:12:13;-3274.60;94.10
54202;DHT22;40108;53.152;5.844;2023-03-01T05:14:39;-3274.60;94.10
54202;DHT22;40108;53.152;5.844;2023-03-01T05:17:05;-3274.50;93.90
54202;DHT22;40108;53.152;5.844;2023-03-01T05:19:31;-3274.40;93.80
54202;DHT22;40108;53.152;5.844;2023-03-01T05:21:58;-3274.40;93.90
54202;DHT22;40108;53.152;5.844;2023-03-01T05:24:28;-3274.40;93.80
54202;DHT22;40108;53.152;5.844;2023-03-01T05:26:54;-3274.30;94.00
54202;DHT22;40108;53.152;5.844;2023-03-01T05:29:21;-3274.40;94.20
54202;DHT22;40108;53.152;5.844;2023-03-01T05:31:58;-3274.40;94.20
54202;DHT22;40108;53.152;5.844;2023-03-01T05:34:25;-3274.40;94.30
54202;DHT22;40108;53.152;5.844;2023-03-01T05:36:52;-3274.50;94.40
54202;DHT22;40108;53.152;5.844;2023-03-01T05:39:23;-3274.60;94.40
54202;DHT22;40108;53.152;5.844;2023-03-01T05:41:53;-3274.60;94.30
54202;DHT22;40108;53.152;5.844;2023-03-01T05:44:19;-3274.60;94.40
54202;DHT22;40108;53.152;5.844;2023-03-01T05:46:45;-3274.60;94.30
54202;DHT22;40108;53.152;5.844;2023-03-01T05:49:12;-3274.60;94.30
54202;DHT22;40108;53.152;5.844;2023-03-01T05:51:42;-3274.60;94.30
54202;DHT22;40108;53.152;5.844;2023-03-01T05:54:09;-3274.60;94.20
54202;DHT22;40108;53.152;5.844;2023-03-01T05:56:36;-3274.60;94.10
54202;DHT22;40108;53.152;5.844;2023-03-01T05:59:03;-3274.50;94.10
54202;DHT22;40108;53.152;5.844;2023-03-01T06:01:30;-3274.50;94.10
54202;DHT22;40108;53.152;5.844;2023-03-01T06:03:56;-3274.50;94.00
54202;DHT22;40108;53.152;5.844;2023-03-01T06:06:23;-3274.50;94.00
54202;DHT22;40108;53.152;5.844;2023-03-01T06:08:49;-3274.40;93.90
54202;DHT22;40108;53.152;5.844;2023-03-01T06:11:15;-3274.40;93.90
54202;DHT22;40108;53.152;5.844;2023-03-01T06:13:42;-3274.40;93.90
54202;DHT22;40108;53.152;5.844;2023-03-01T06:16:08;-3274.40;94.00
54202;DHT22;40108;53.152;5.844;2023-03-01T06:18:34;-3274.40;93.80
54202;DHT22;40108;53.152;5.844;2023-03-01T06:21:00;-3274.40;93.80
54202;DHT22;40108;53.152;5.844;2023-03-01T06:23:26;-3274.30;93.90
54202;DHT22;40108;53.152;5.844;2023-03-01T06:25:52;-3274.40;93.90
54202;DHT22;40108;53.152;5.844;2023-03-01T06:28:18;-3274.40;93.90
54202;DHT22;40108;53.152;5.844;2023-03-01T06:30:43;-3274.40;93.80
54202;DHT22;40108;53.152;5.844;2023-03-01T06:33:09;-3274.40;93.80
54202;DHT22;40108;53.152;5.844;2023-03-01T06:35:35;-3274.40;93.80
54202;DHT22;40108;53.152;5.844;2023-03-01T06:38:02;-3274.40;93.80
54202;DHT22;40108;53.152;5.844;2023-03-01T06:40:28;-3274.40;93.80
54202;DHT22;40108;53.152;5.844;2023-03-01T06:42:54;-3274.40;93.80
54202;DHT22;40108;53.152;5.844;2023-03-01T06:45:21;-3274.40;93.80
54202;DHT22;40108;53.152;5.844;2023-03-01T06:47:47;-3274.40;93.80
54202;DHT22;40108;53.152;5.844;2023-03-01T06:50:13;-3274.40;93.80
54202;DHT22;40108;53.152;5.844;2023-03-01T06:52:39;-3274.50;93.80
54202;DHT22;40108;53.152;5.844;2023-03-01T06:55:05;-3274.40;93.70
54202;DHT22;40108;53.152;5.844;2023-03-01T06:57:32;-3274.40;93.70
54202;DHT22;40108;53.152;5.844;2023-03-01T06:59:58;-3274.40;93.60
54202;DHT22;40108;53.152;5.844;2023-03-01T07:02:23;-3274.40;93.70
54202;DHT22;40108;53.152;5.844;2023-03-01T07:04:50;-3274.40;93.70
54202;DHT22;40108;53.152;5.844;2023-03-01T07:07:17;-3274.40;93.60
54202;DHT22;40108;53.152;5.844;2023-03-01T07:09:44;-3274.40;93.60
54202;DHT22;40108;53.152;5.844;2023-03-01T07:12:10;-3274.40;93.70
54202;DHT22;40108;53.152;5.844;2023-03-01T07:14:36;-3274.40;93.70
54202;DHT22;40108;53.152;5.844;2023-03-01T07:17:02;-3274.40;93.70
54202;DHT22;40108;53.152;5.844;2023-03-01T07:19:27;-3274.50;93.70
54202;DHT22;40108;53.152;5.844;2023-03-01T07:21:53;-3274.40;93.60
54202;DHT22;40108;53.152;5.844;2023-03-01T07:24:19;-3274.40;93.50
54202;DHT22;40108;53.152;5.844;2023-03-01T07:26:48;-3274.40;93.50
54202;DHT22;40108;53.152;5.844;2023-03-01T07:29:14;-3274.40;93.50
54202;DHT22;40108;53.152;5.844;2023-03-01T07:31:40;-3274.40;93.50
54202;DHT22;40108;53.152;5.844;2023-03-01T07:34:06;-3274.50;93.60
54202;DHT22;40108;53.152;5.844;2023-03-01T07:36:31;-3274.50;93.50
54202;DHT22;40108;53.152;5.844;2023-03-01T07:38:58;-3274.50;93.50
54202;DHT22;40108;53.152;5.844;2023-03-01T07:41:24;-3274.50;93.60
54202;DHT22;40108;53.152;5.844;2023-03-01T07:43:49;-3274.50;93.80
54202;DHT22;40108;53.152;5.844;2023-03-01T07:46:15;-3274.60;94.00
54202;DHT22;40108;53.152;5.844;2023-03-01T07:48:41;-3274.70;94.00
54202;DHT22;40108;53.152;5.844;2023-03-01T07:51:07;-3274.80;94.00
54202;DHT22;40108;53.152;5.844;2023-03-01T07:53:34;-3274.90;94.10
54202;DHT22;40108;53.152;5.844;2023-03-01T07:56:04;-3275.00;94.10
54202;DHT22;40108;53.152;5.844;2023-03-01T07:58:31;-3275.10;94.20
54202;DHT22;40108;53.152;5.844;2023-03-01T08:01:02;-3275.20;94.00
54202;DHT22;40108;53.152;5.844;2023-03-01T08:03:28;-3275.30;94.10
54202;DHT22;40108;53.152;5.844;2023-03-01T08:05:54;-3275.40;94.10
54202;DHT22;40108;53.152;5.844;2023-03-01T08:08:20;-3275.50;94.10
54202;DHT22;40108;53.152;5.844;2023-03-01T08:10:45;-3275.60;94.10
54202;DHT22;40108;53.152;5.844;2023-03-01T08:13:11;-3275.80;94.10
54202;DHT22;40108;53.152;5.844;2023-03-01T08:15:37;-3275.90;94.10
54202;DHT22;40108;53.152;5.844;2023-03-01T08:18:02;-3276.10;94.00
54202;DHT22;40108;53.152;5.844;2023-03-01T08:20:28;-3276.20;94.00
54202;DHT22;40108;53.152;5.844;2023-03-01T08:22:54;-3276.40;94.00
54202;DHT22;40108;53.152;5.844;2023-03-01T08:25:19;-3276.60;93.80
54202;DHT22;40108;53.152;5.844;2023-03-01T08:27:45;-3276.70;93.80
54202;DHT22;40108;53.152;5.844;2023-03-01T08:30:11;0.00;93.70
54202;DHT22;40108;53.152;5.844;2023-03-01T08:32:38;0.20;93.60
54202;DHT22;40108;53.152;5.844;2023-03-01T08:35:05;0.40;93.50
54202;DHT22;40108;53.152;5.844;2023-03-01T08:37:31;0.70;93.50
54202;DHT22;40108;53.152;5.844;2023-03-01T08:39:59;1.00;93.50
54202;DHT22;40108;53.152;5.844;2023-03-01T08:42:24;1.40;93.60
54202;DHT22;40108;53.152;5.844;2023-03-01T08:44:50;1.80;93.40
54202;DHT22;40108;53.152;5.844;2023-03-01T08:47:16;2.10;93.20
54202;DHT22;40108;53.152;5.844;2023-03-01T08:49:41;2.30;92.80
54202;DHT22;40108;53.152;5.844;2023-03-01T08:52:07;2.60;92.70
54202;DHT22;40108;53.152;5.844;2023-03-01T08:54:33;2.90;92.60
54202;DHT22;40108;53.152;5.844;2023-03-01T08:57:01;3.10;91.90
54202;DHT22;40108;53.152;5.844;2023-03-01T08:59:27;3.20;91.40
54202;DHT22;40108;53.152;5.844;2023-03-01T09:01:55;3.30;91.00
54202;DHT22;40108;53.152;5.844;2023-03-01T09:04:20;3.30;90.20
54202;DHT22;40108;53.152;5.844;2023-03-01T09:06:46;3.40;90.40
54202;DHT22;40108;53.152;5.844;2023-03-01T09:09:17;3.70;90.40
54202;DHT22;40108;53.152;5.844;2023-03-01T09:11:44;4.00;89.40
54202;DHT22;40108;53.152;5.844;2023-03-01T09:14:12;4.20;89.50
54202;DHT22;40108;53.152;5.844;2023-03-01T09:16:38;4.30;88.90
54202;DHT22;40108;53.152;5.844;2023-03-01T09:19:05;4.60;88.80
54202;DHT22;40108;53.152;5.844;2023-03-01T09:21:31;4.80;88.30
54202;DHT22;40108;53.152;5.844;2023-03-01T09:23:57;5.00;88.30
54202;DHT22;40108;53.152;5.844;2023-03-01T09:26:24;5.20;88.50
54202;DHT22;40108;53.152;5.844;2023-03-01T09:28:53;5.60;88.30
54202;DHT22;40108;53.152;5.844;2023-03-01T09:31:21;5.90;88.30
54202;DHT22;40108;53.152;5.844;2023-03-01T09:33:49;6.20;88.20
54202;DHT22;40108;53.152;5.844;2023-03-01T09:36:17;6.50;86.40
54202;DHT22;40108;53.152;5.844;2023-03-01T09:38:44;6.80;86.00
54202;DHT22;40108;53.152;5.844;2023-03-01T09:47:00;7.90;85.60
54202;DHT22;40108;53.152;5.844;2023-03-01T09:49:29;8.20;85.00
54202;DHT22;40108;53.152;5.844;2023-03-01T09:52:03;8.40;84.00
54202;DHT22;40108;53.152;5.844;2023-03-01T09:54:30;8.50;84.10
54202;DHT22;40108;53.152;5.844;2023-03-01T09:57:17;8.60;83.00
54202;DHT22;40108;53.152;5.844;2023-03-01T10:10:52;9.40;76.60
54202;DHT22;40108;53.152;5.844;2023-03-01T10:13:47;9.80;79.50
54202;DHT22;40108;53.152;5.844;2023-03-01T10:19:31;10.10;69.20
54202;DHT22;40108;53.152;5.844;2023-03-01T10:22:15;9.80;65.60
54202;DHT22;40108;53.152;5.844;2023-03-01T10:24:41;9.90;67.00
54202;DHT22;40108;53.152;5.844;2023-03-01T10:30:19;10.30;70.70
54202;DHT22;40108;53.152;5.844;2023-03-01T10:32:48;10.60;68.70
54202;DHT22;40108;53.152;5.844;2023-03-01T10:35:27;10.70;63.40
54202;DHT22;40108;53.152;5.844;2023-03-01T10:40:28;11.30;66.10
54202;DHT22;40108;53.152;5.844;2023-03-01T10:42:57;11.50;67.20
54202;DHT22;40108;53.152;5.844;2023-03-01T10:50:35;12.00;62.20
54202;DHT22;40108;53.152;5.844;2023-03-01T10:53:04;12.10;61.70
54202;DHT22;40108;53.152;5.844;2023-03-01T10:55:38;12.20;61.20
54202;DHT22;40108;53.152;5.844;2023-03-01T10:58:20;12.30;61.20
54202;DHT22;40108;53.152;5.844;2023-03-01T11:00:56;12.60;63.30
54202;DHT22;40108;53.152;5.844;2023-03-01T11:03:27;12.70;63.90
54202;DHT22;40108;53.152;5.844;2023-03-01T11:06:04;13.00;57.80
54202;DHT22;40108;53.152;5.844;2023-03-01T11:08:31;13.10;60.20
54202;DHT22;40108;53.152;5.844;2023-03-01T11:13:53;12.50;56.50
54202;DHT22;40108;53.152;5.844;2023-03-01T11:21:39;13.20;57.90
54202;DHT22;40108;53.152;5.844;2023-03-01T11:24:11;13.40;55.60
54202;DHT22;40108;53.152;5.844;2023-03-01T11:26:40;12.90;52.80
54202;DHT22;40108;53.152;5.844;2023-03-01T11:31:59;12.90;55.10
54202;DHT22;40108;53.152;5.844;2023-03-01T11:34:49;12.90;55.60
54202;DHT22;40108;53.152;5.844;2023-03-01T11:40:24;12.70;48.80
54202;DHT22;40108;53.152;5.844;2023-03-01T11:51:38;12.60;50.90
54202;DHT22;40108;53.152;5.844;2023-03-01T12:00:03;12.10;48.40
54202;DHT22;40108;53.152;5.844;2023-03-01T12:11:23;11.30;51.30
54202;DHT22;40108;53.152;5.844;2023-03-01T12:22:30;11.30;54.50
54202;DHT22;40108;53.152;5.844;2023-03-01T12:25:20;11.40;55.10
54202;DHT22;40108;53.152;5.844;2023-03-01T12:28:04;11.70;54.90
54202;DHT22;40108;53.152;5.844;2023-03-01T12:33:53;11.80;54.40
54202;DHT22;40108;53.152;5.844;2023-03-01T12:36:33;11.60;52.80
54202;DHT22;40108;53.152;5.844;2023-03-01T12:39:11;11.20;50.80
54202;DHT22;40108;53.152;5.844;2023-03-01T12:41:55;10.90;52.70
54202;DHT22;40108;53.152;5.844;2023-03-01T12:49:48;11.10;54.50
54202;DHT22;40108;53.152;5.844;2023-03-01T12:54:48;10.60;53.30
54202;DHT22;40108;53.152;5.844;2023-03-01T12:57:20;10.40;52.80
54202;DHT22;40108;53.152;5.844;2023-03-01T13:00:02;10.20;52.30
54202;DHT22;40108;53.152;5.844;2023-03-01T13:11:19;10.30;55.10
54202;DHT22;40108;53.152;5.844;2023-03-01T13:13:46;10.50;54.60
54202;DHT22;40108;53.152;5.844;2023-03-01T13:21:35;10.30;54.60
54202;DHT22;40108;53.152;5.844;2023-03-01T13:24:01;9.80;56.70
54202;DHT22;40108;53.152;5.844;2023-03-01T13:26:27;9.50;58.20
54202;DHT22;40108;53.152;5.844;2023-03-01T13:28:57;9.30;60.10
54202;DHT22;40108;53.152;5.844;2023-03-01T13:33:54;8.80;57.50
54202;DHT22;40108;53.152;5.844;2023-03-01T13:39:26;8.50;60.80
54202;DHT22;40108;53.152;5.844;2023-03-01T13:41:55;8.50;60.40
54202;DHT22;40108;53.152;5.844;2023-03-01T13:50:04;8.40;60.90
54202;DHT22;40108;53.152;5.844;2023-03-01T13:52:40;8.40;60.10
54202;DHT22;40108;53.152;5.844;2023-03-01T13:57:39;8.30;61.20
54202;DHT22;40108;53.152;5.844;2023-03-01T14:00:30;8.20;60.60
54202;DHT22;40108;53.152;5.844;2023-03-01T14:03:20;8.20;61.60
54202;DHT22;40108;53.152;5.844;2023-03-01T14:06:09;8.20;61.00
54202;DHT22;40108;53.152;5.844;2023-03-01T14:08:38;8.30;61.70
54202;DHT22;40108;53.152;5.844;2023-03-01T14:17:29;8.20;62.60
54202;DHT22;40108;53.152;5.844;2023-03-01T14:20:03;8.10;61.60
54202;DHT22;40108;53.152;5.844;2023-03-01T14:22:35;8.10;62.10
54202;DHT22;40108;53.152;5.844;2023-03-01T14:27:59;8.00;63.20
54202;DHT22;40108;53.152;5.844;2023-03-01T14:30:30;8.00;62.60
54202;DHT22;40108;53.152;5.844;2023-03-01T14:32:59;8.00;62.20
54202;DHT22;40108;53.152;5.844;2023-03-01T14:35:28;8.00;63.20
54202;DHT22;40108;53.152;5.844;2023-03-01T14:37:54;7.90;63.20
54202;DHT22;40108;53.152;5.844;2023-03-01T14:42:55;7.90;62.70
54202;DHT22;40108;53.152;5.844;2023-03-01T14:45:23;7.80;63.40
54202;DHT22;40108;53.152;5.844;2023-03-01T14:47:50;7.80;63.60
54202;DHT22;40108;53.152;5.844;2023-03-01T14:50:28;7.80;64.50
54202;DHT22;40108;53.152;5.844;2023-03-01T14:52:58;7.80;63.20
54202;DHT22;40108;53.152;5.844;2023-03-01T14:55:31;7.80;64.50
54202;DHT22;40108;53.152;5.844;2023-03-01T14:57:58;7.80;64.00
54202;DHT22;40108;53.152;5.844;2023-03-01T15:00:29;7.80;64.50
54202;DHT22;40108;53.152;5.844;2023-03-01T15:03:00;7.80;65.40
54202;DHT22;40108;53.152;5.844;2023-03-01T15:05:33;7.80;65.40
54202;DHT22;40108;53.152;5.844;2023-03-01T15:08:01;7.70;65.40
54202;DHT22;40108;53.152;5.844;2023-03-01T15:10:31;7.70;66.20
54202;DHT22;40108;53.152;5.844;2023-03-01T15:13:14;7.70;66.60
54202;DHT22;40108;53.152;5.844;2023-03-01T15:15:47;7.70;65.60
54202;DHT22;40108;53.152;5.844;2023-03-01T15:18:19;7.60;66.10
54202;DHT22;40108;53.152;5.844;2023-03-01T15:20:46;7.60;66.50
54202;DHT22;40108;53.152;5.844;2023-03-01T15:23:29;7.70;67.20
54202;DHT22;40108;53.152;5.844;2023-03-01T15:25:56;7.70;66.80
54202;DHT22;40108;53.152;5.844;2023-03-01T15:28:48;7.70;66.10
54202;DHT22;40108;53.152;5.844;2023-03-01T15:33:43;7.60;66.10
54202;DHT22;40108;53.152;5.844;2023-03-01T15:36:35;7.60;66.30
54202;DHT22;40108;53.152;5.844;2023-03-01T15:39:03;7.50;65.90
54202;DHT22;40108;53.152;5.844;2023-03-01T15:41:48;7.50;65.80
54202;DHT22;40108;53.152;5.844;2023-03-01T15:44:32;7.40;65.40
54202;DHT22;40108;53.152;5.844;2023-03-01T15:46:59;7.40;66.60
54202;DHT22;40108;53.152;5.844;2023-03-01T15:49:40;7.40;67.30
54202;DHT22;40108;53.152;5.844;2023-03-01T15:52:21;7.30;67.30
54202;DHT22;40108;53.152;5.844;2023-03-01T15:54:55;7.30;67.60
54202;DHT22;40108;53.152;5.844;2023-03-01T15:57:22;7.20;68.20
54202;DHT22;40108;53.152;5.844;2023-03-01T15:59:48;7.20;68.80
54202;DHT22;40108;53.152;5.844;2023-03-01T16:02:14;7.20;69.10
54202;DHT22;40108;53.152;5.844;2023-03-01T16:04:40;7.20;69.70
54202;DHT22;40108;53.152;5.844;2023-03-01T16:07:06;7.20;70.10
54202;DHT22;40108;53.152;5.844;2023-03-01T16:09:33;7.10;70.50
54202;DHT22;40108;53.152;5.844;2023-03-01T16:11:59;7.10;70.30
54202;DHT22;40108;53.152;5.844;2023-03-01T16:14:25;7.00;70.70
54202;DHT22;40108;53.152;5.844;2023-03-01T16:16:51;7.00;71.30
54202;DHT22;40108;53.152;5.844;2023-03-01T16:19:16;6.90;71.60
54202;DHT22;40108;53.152;5.844;2023-03-01T16:21:42;6.90;71.90
54202;DHT22;40108;53.152;5.844;2023-03-01T16:24:09;6.80;72.40
54202;DHT22;40108;53.152;5.844;2023-03-01T16:26:37;6.80;73.00
54202;DHT22;40108;53.152;5.844;2023-03-01T16:29:03;6.70;73.70
54202;DHT22;40108;53.152;5.844;2023-03-01T16:31:28;6.70;73.80
54202;DHT22;40108;53.152;5.844;2023-03-01T16:33:56;6.60;74.00
54202;DHT22;40108;53.152;5.844;2023-03-01T16:36:23;6.60;73.90
54202;DHT22;40108;53.152;5.844;2023-03-01T16:38:50;6.50;74.10
54202;DHT22;40108;53.152;5.844;2023-03-01T16:41:18;6.40;74.30
54202;DHT22;40108;53.152;5.844;2023-03-01T16:43:44;6.40;74.70
54202;DHT22;40108;53.152;5.844;2023-03-01T16:46:14;6.30;75.10
54202;DHT22;40108;53.152;5.844;2023-03-01T16:48:39;6.30;75.30
54202;DHT22;40108;53.152;5.844;2023-03-01T16:51:06;6.20;75.50
54202;DHT22;40108;53.152;5.844;2023-03-01T16:53:33;6.20;75.40
54202;DHT22;40108;53.152;5.844;2023-03-01T16:56:00;6.10;76.30
54202;DHT22;40108;53.152;5.844;2023-03-01T16:58:26;6.00;77.20
54202;DHT22;40108;53.152;5.844;2023-03-01T17:00:53;6.00;78.10
54202;DHT22;40108;53.152;5.844;2023-03-01T17:03:25;5.90;79.10
54202;DHT22;40108;53.152;5.844;2023-03-01T17:05:51;5.80;79.80
54202;DHT22;40108;53.152;5.844;2023-03-01T17:08:17;5.70;79.90
54202;DHT22;40108;53.152;5.844;2023-03-01T17:10:43;5.70;81.20
54202;DHT22;40108;53.152;5.844;2023-03-01T17:13:09;5.70;81.20
54202;DHT22;40108;53.152;5.844;2023-03-01T17:15:39;5.60;81.50
54202;DHT22;40108;53.152;5.844;2023-03-01T17:18:05;5.50;82.20
54202;DHT22;40108;53.152;5.844;2023-03-01T17:20:31;5.40;82.30
54202;DHT22;40108;53.152;5.844;2023-03-01T17:22:57;5.30;83.40
54202;DHT22;40108;53.152;5.844;2023-03-01T17:25:23;5.20;83.70
54202;DHT22;40108;53.152;5.844;2023-03-01T17:27:48;5.20;84.70
54202;DHT22;40108;53.152;5.844;2023-03-01T17:30:15;5.10;84.60
54202;DHT22;40108;53.152;5.844;2023-03-01T17:32:40;5.10;84.50
54202;DHT22;40108;53.152;5.844;2023-03-01T17:35:07;5.00;84.00
54202;DHT22;40108;53.152;5.844;2023-03-01T17:37:33;4.90;85.00
54202;DHT22;40108;53.152;5.844;2023-03-01T17:39:59;4.80;85.00
54202;DHT22;40108;53.152;5.844;2023-03-01T17:42:24;4.80;85.70
54202;DHT22;40108;53.152;5.844;2023-03-01T17:44:50;4.80;85.90